createdAt,value
2019-01-02T00:01:13.622Z,95148.52
2019-01-02T00:03:43.284Z,95152.66
2019-01-02T00:06:12.893Z,95148.36
2019-01-02T00:08:43.047Z,95147.08
2019-01-02T00:11:12.718Z,95152.17
2019-01-02T00:13:42.231Z,95147.52
2019-01-02T00:16:12.138Z,95154.19
2019-01-02T00:18:41.639Z,95152.21
2019-01-02T00:21:11.191Z,95154.41
2019-01-02T00:23:41.308Z,95157.98
2019-01-02T00:26:10.892Z,95156.84
2019-01-02T00:28:40.605Z,95157.98
2019-01-02T00:31:10.545Z,95151.95
2019-01-02T00:33:40.139Z,95160.50
2019-01-02T00:36:09.507Z,95155.18
2019-01-02T00:38:39.530Z,95154.84
2019-01-02T00:41:09.125Z,95148.95
2019-01-02T00:43:38.603Z,95146.19
2019-01-02T00:46:08.553Z,95147.17
2019-01-02T00:48:38.284Z,95143.75
2019-01-02T00:51:08.007Z,95142.09
2019-01-02T00:53:37.648Z,95132.81
2019-01-02T00:56:07.310Z,95130.65
2019-01-02T00:58:36.660Z,95127.75
2019-01-02T01:01:06.440Z,95131.39
2019-01-02T01:03:36.060Z,95125.23
2019-01-02T01:06:06.002Z,95123.68
2019-01-02T01:08:35.749Z,95110.38
2019-01-02T01:11:05.455Z,95111.30
2019-01-02T01:13:35.145Z,95114.56
2019-01-02T01:16:04.791Z,95126.72
2019-01-02T01:18:34.444Z,95114.83
2019-01-02T01:21:04.124Z,95110.09
2019-01-02T01:23:33.824Z,95095.81
2019-01-02T01:26:03.338Z,95096.80
2019-01-02T01:28:32.963Z,95096.80
2019-01-02T01:31:02.539Z,95096.62
2019-01-02T01:33:33.067Z,95083.15
2019-01-02T01:36:03.211Z,95078.59
2019-01-02T01:38:32.669Z,95068.21
2019-01-02T01:41:02.422Z,95061.42
2019-01-02T01:43:32.048Z,95051.83
2019-01-02T01:46:01.618Z,95053.16
2019-01-02T01:48:31.115Z,95059.47
2019-01-02T01:51:00.756Z,95055.33
2019-01-02T01:53:30.432Z,95046.14
2019-01-02T01:55:59.967Z,95051.55
2019-01-02T01:58:29.751Z,95046.11
2019-01-02T02:00:59.467Z,95049.48
2019-01-02T02:03:29.023Z,95042.99
2019-01-02T02:05:58.895Z,95044.82
2019-01-02T02:08:28.608Z,95036.50
2019-01-02T02:10:58.240Z,95032.28
2019-01-02T02:13:27.956Z,95026.66
2019-01-02T02:15:57.527Z,95022.66
2019-01-02T02:18:27.434Z,95021.16
2019-01-02T02:20:56.943Z,95015.73
2019-01-02T02:23:26.484Z,95011.43
2019-01-02T02:25:56.196Z,95004.16
2019-01-02T02:28:25.894Z,94995.90
2019-01-02T02:30:55.372Z,94993.70
2019-01-02T02:33:26.187Z,94988.88
2019-01-02T02:35:55.693Z,94991.91
2019-01-02T02:38:25.339Z,94990.98
2019-01-02T02:40:55.380Z,94988.88
2019-01-02T02:43:24.963Z,94994.31
2019-01-02T02:45:54.587Z,94983.74
2019-01-02T02:48:24.337Z,94996.43
2019-01-02T02:50:54.050Z,94995.63
2019-01-02T02:53:23.588Z,94986.37
2019-01-02T02:55:53.587Z,94982.89
2019-01-02T02:58:23.315Z,94972.31
2019-01-02T03:00:52.939Z,94974.66
2019-01-02T03:03:22.739Z,94964.15
2019-01-02T03:05:52.448Z,94964.86
2019-01-02T03:08:22.088Z,94959.70
2019-01-02T03:10:52.067Z,94963.72
2019-01-02T03:13:21.887Z,94959.47
2019-01-02T03:15:51.469Z,94955.11
2019-01-02T03:18:21.143Z,94954.03
2019-01-02T03:20:50.894Z,94959.44
2019-01-02T03:23:22.314Z,94953.16
2019-01-02T03:25:51.788Z,94958.23
2019-01-02T03:28:21.282Z,94962.80
2019-01-02T03:30:51.090Z,94964.14
2019-01-02T03:33:20.468Z,94962.86
2019-01-02T03:35:49.876Z,94960.77
2019-01-02T03:38:19.239Z,94964.59
2019-01-02T03:40:48.959Z,94959.81
2019-01-02T03:43:18.371Z,94958.43
2019-01-02T03:45:47.863Z,94956.30
2019-01-02T03:48:17.246Z,94958.83
2019-01-02T03:50:46.944Z,94955.13
2019-01-02T03:53:16.792Z,94950.95
2019-01-02T03:55:46.870Z,94948.56
2019-01-02T03:58:16.376Z,94950.20
2019-01-02T04:00:46.176Z,94942.36
2019-01-02T04:03:15.948Z,94935.58
2019-01-02T04:05:45.509Z,94935.89
2019-01-02T04:08:15.402Z,94933.49
2019-01-02T04:10:45.144Z,94933.49
2019-01-02T04:13:14.836Z,94932.95
2019-01-02T04:15:44.680Z,94934.33
2019-01-02T04:18:14.345Z,94928.22
2019-01-02T04:20:43.986Z,94917.13
2019-01-02T04:23:13.956Z,94906.53
2019-01-02T04:25:43.396Z,94917.20
2019-01-02T04:28:15.946Z,94920.42
2019-01-02T04:30:45.579Z,94916.40
2019-01-02T04:33:15.203Z,94916.07
2019-01-02T04:35:45.100Z,94911.60
2019-01-02T04:38:14.745Z,94907.63
2019-01-02T04:40:44.448Z,94907.36
2019-01-02T04:43:14.375Z,94902.70
2019-01-02T04:45:44.060Z,94901.60
2019-01-02T04:48:13.540Z,94908.41
2019-01-02T04:50:43.091Z,94907.20
2019-01-02T04:53:12.803Z,94912.02
2019-01-02T04:55:42.297Z,94907.42
2019-01-02T04:58:12.229Z,94911.44
2019-01-02T05:00:41.744Z,94908.38
2019-01-02T05:03:11.062Z,94908.78
2019-01-02T05:05:40.719Z,94913.16
2019-01-02T05:08:10.221Z,94914.44
2019-01-02T05:10:39.835Z,94918.89
2019-01-02T05:13:09.929Z,94914.23
2019-01-02T05:15:39.666Z,94914.31
2019-01-02T05:18:09.268Z,94914.28
2019-01-02T05:20:39.239Z,94906.92
2019-01-02T05:23:09.019Z,94907.58
2019-01-02T05:25:39.047Z,94905.31
2019-01-02T05:28:08.536Z,94905.70
2019-01-02T05:30:38.228Z,94905.97
2019-01-02T05:33:07.765Z,94903.09
2019-01-02T05:35:37.601Z,94903.05
2019-01-02T05:38:07.324Z,94896.33
2019-01-02T05:40:37.084Z,94895.81
2019-01-02T05:43:06.625Z,94897.09
2019-01-02T05:45:36.087Z,94899.09
2019-01-02T05:48:05.701Z,94896.65
2019-01-02T05:50:35.423Z,94884.84
2019-01-02T05:53:05.013Z,94888.64
2019-01-02T05:55:35.087Z,94892.95
2019-01-02T05:58:04.452Z,94886.08
2019-01-02T06:00:39.689Z,94892.31
2019-01-02T06:03:04.028Z,94880.23
2019-01-02T06:05:33.590Z,94873.11
2019-01-02T06:08:03.095Z,94869.81
2019-01-02T06:10:32.826Z,94870.47
2019-01-02T06:13:02.418Z,94866.08
2019-01-02T06:15:32.107Z,94864.92
2019-01-02T06:18:01.941Z,94855.41
2019-01-02T06:20:31.535Z,94839.44
2019-01-02T06:23:01.127Z,94863.25
2019-01-02T06:25:30.926Z,94867.78
2019-01-02T06:28:00.475Z,94875.34
2019-01-02T06:30:30.059Z,94878.78
2019-01-02T06:33:00.046Z,94871.06
2019-01-02T06:35:29.680Z,94860.45
2019-01-02T06:37:59.403Z,94860.56
2019-01-02T06:40:29.236Z,94880.54
2019-01-02T06:42:58.919Z,94884.30
2019-01-02T06:45:28.632Z,94900.28
2019-01-02T06:47:58.284Z,94898.78
2019-01-02T06:50:27.830Z,94889.00
2019-01-02T06:52:57.599Z,94894.83
2019-01-02T06:55:27.484Z,94901.51
2019-01-02T06:57:56.964Z,94897.67
2019-01-02T07:00:30.814Z,94913.43
2019-01-02T07:03:00.447Z,94905.47
2019-01-02T07:05:29.891Z,94905.54
2019-01-02T07:07:59.538Z,94910.70
2019-01-02T07:10:29.062Z,94908.17
2019-01-02T07:12:58.615Z,94917.83
2019-01-02T07:15:28.580Z,94916.20
2019-01-02T07:17:58.244Z,94919.69
2019-01-02T07:20:28.051Z,94910.02
2019-01-02T07:22:58.372Z,94917.31
2019-01-02T07:25:28.087Z,94920.51
2019-01-02T07:27:57.652Z,94923.98
2019-01-02T07:30:27.749Z,94921.38
2019-01-02T07:32:57.659Z,94917.92
2019-01-02T07:35:38.060Z,94917.77
2019-01-02T07:39:38.013Z,94912.40
2019-01-02T07:42:24.332Z,94925.47
2019-01-02T07:45:34.582Z,94913.85
2019-01-02T07:50:21.197Z,94909.78
2019-01-02T07:53:16.262Z,94907.02
2019-01-02T07:56:00.592Z,94901.05
2019-01-02T07:59:41.694Z,94904.36
2019-01-02T08:03:28.021Z,94898.71
2019-01-02T08:06:23.153Z,94892.75
2019-01-02T08:11:05.515Z,94881.95
2019-01-02T08:15:03.005Z,94882.25
2019-01-02T08:17:43.055Z,94881.34
2019-01-02T08:20:25.992Z,94880.66
2019-01-02T08:23:20.547Z,94870.67
2019-01-02T08:27:11.692Z,94864.33
2019-01-02T08:29:54.821Z,94881.80
2019-01-02T08:32:50.368Z,94884.13
2019-01-02T08:37:45.533Z,94870.84
2019-01-02T08:42:31.017Z,94863.44
2019-01-02T08:45:13.419Z,94848.29
2019-01-02T08:50:02.262Z,94843.23
2019-01-02T08:52:45.379Z,94843.30
2019-01-02T08:57:00.622Z,94837.94
2019-01-02T08:59:57.423Z,94826.58
2019-01-02T09:02:54.938Z,94825.54
2019-01-02T09:05:38.936Z,94828.14
2019-01-02T09:09:25.296Z,94830.01
2019-01-02T09:12:03.817Z,94816.64
2019-01-02T09:16:46.839Z,94810.46
2019-01-02T09:19:57.023Z,94797.80
2019-01-02T09:23:36.119Z,94788.91
2019-01-02T09:26:39.366Z,94787.45
2019-01-02T09:29:25.080Z,94779.23
2019-01-02T09:32:09.119Z,94767.95
2019-01-02T09:34:56.577Z,94770.43
2019-01-02T09:40:44.459Z,94765.27
2019-01-02T09:43:39.029Z,94772.36
2019-01-02T09:46:25.047Z,94761.44
2019-01-02T09:49:38.373Z,94753.93
2019-01-02T09:52:28.296Z,94744.97
2019-01-02T09:55:22.711Z,94723.45
2019-01-02T09:59:05.257Z,94742.20
2019-01-02T10:01:47.492Z,94727.34
2019-01-02T10:04:27.212Z,94722.09
2019-01-02T10:07:09.992Z,94717.86
2019-01-02T10:11:56.325Z,94707.09
2019-01-02T10:14:41.655Z,94706.54
2019-01-02T10:17:24.012Z,94708.04
2019-01-02T10:20:08.260Z,94702.95
2019-01-02T10:22:49.511Z,94703.25
2019-01-02T10:25:31.548Z,94702.13
2019-01-02T10:28:16.292Z,94703.49
2019-01-02T10:31:03.291Z,94700.64
2019-01-02T10:33:49.621Z,94691.86
2019-01-02T10:37:06.419Z,94686.11
2019-01-02T10:39:52.541Z,94676.27
2019-01-02T10:42:34.909Z,94681.64
2019-01-02T10:45:20.400Z,94677.77
2019-01-02T10:48:14.140Z,94677.33
2019-01-02T10:50:54.570Z,94671.96
2019-01-02T10:53:46.163Z,94675.57
2019-01-02T10:57:26.919Z,94665.08
2019-01-02T11:00:19.107Z,94660.72
2019-01-02T11:04:02.341Z,94656.26
2019-01-02T11:07:14.159Z,94648.11
2019-01-02T11:10:10.582Z,94660.77
2019-01-02T11:12:57.037Z,94659.16
2019-01-02T11:15:37.949Z,94657.59
2019-01-02T11:18:32.028Z,94664.88
2019-01-02T11:21:16.556Z,94661.14
2019-01-02T11:24:11.840Z,94661.35
2019-01-02T11:28:56.910Z,94660.57
2019-01-02T11:32:27.399Z,94653.64
2019-01-02T11:35:40.406Z,94646.12
2019-01-02T11:38:53.169Z,94637.31
2019-01-02T11:41:32.377Z,94648.20
2019-01-02T11:45:13.173Z,94641.13
2019-01-02T11:47:42.812Z,94619.80
2019-01-02T11:50:14.218Z,94610.97
2019-01-02T11:52:44.512Z,94595.91
2019-01-02T11:55:13.954Z,94601.41
2019-01-02T11:57:43.923Z,94604.47
2019-01-02T12:00:15.883Z,94605.92
2019-01-02T12:02:45.544Z,94591.11
2019-01-02T12:05:15.136Z,94602.25
2019-01-02T12:07:44.730Z,94591.77
2019-01-02T12:10:15.861Z,94592.56
2019-01-02T12:12:45.373Z,94590.42
2019-01-02T12:15:15.157Z,94581.95
2019-01-02T12:17:44.722Z,94582.25
2019-01-02T12:20:14.246Z,94583.45
2019-01-02T12:22:43.877Z,94576.89
2019-01-02T12:25:13.538Z,94578.86
2019-01-02T12:27:43.162Z,94570.83
2019-01-02T12:30:14.708Z,94556.68
2019-01-02T12:32:45.539Z,94563.92
2019-01-02T12:35:15.423Z,94571.66
2019-01-02T12:37:45.081Z,94576.09
2019-01-02T12:40:14.853Z,94576.70
2019-01-02T12:42:44.723Z,94581.16
2019-01-02T12:45:14.647Z,94584.03
2019-01-02T12:47:44.719Z,94586.73
2019-01-02T12:50:14.370Z,94595.59
2019-01-02T12:52:44.152Z,94588.80
2019-01-02T12:55:13.882Z,94595.26
2019-01-02T12:57:43.696Z,94597.07
2019-01-02T13:00:14.565Z,94600.15
2019-01-02T13:03:08.202Z,94608.73
2019-01-02T13:05:48.127Z,94585.62
2019-01-02T13:08:29.505Z,94593.37
2019-01-02T13:11:10.069Z,94579.23
2019-01-02T13:14:24.318Z,94571.56
2019-01-02T13:17:36.491Z,94580.44
2019-01-02T13:22:20.772Z,94581.42
2019-01-02T13:25:00.299Z,94578.69
2019-01-02T13:28:55.855Z,94583.17
2019-01-02T13:31:41.559Z,94592.21
2019-01-02T13:34:33.638Z,94589.93
2019-01-02T13:37:13.236Z,94598.86
2019-01-02T13:39:56.492Z,94597.92
2019-01-02T13:42:37.820Z,94601.55
2019-01-02T13:45:20.318Z,94595.82
2019-01-02T13:48:01.805Z,94598.09
2019-01-02T13:51:12.465Z,94602.52
2019-01-02T13:53:41.769Z,94615.41
2019-01-02T13:56:15.285Z,94614.86
2019-01-02T13:58:44.843Z,94626.39
2019-01-02T14:01:14.319Z,94623.61
2019-01-02T14:03:45.557Z,94624.94
2019-01-02T14:06:14.971Z,94628.22
2019-01-02T14:08:44.472Z,94633.56
2019-01-02T14:11:14.343Z,94637.16
2019-01-02T14:13:43.723Z,94646.99
2019-01-02T14:16:13.103Z,94646.03
2019-01-02T14:18:42.471Z,94649.78
2019-01-02T14:21:11.771Z,94653.44
2019-01-02T14:23:41.403Z,94655.05
2019-01-02T14:26:10.760Z,94659.33
2019-01-02T14:28:40.207Z,94659.55
2019-01-02T14:31:09.560Z,94678.78
2019-01-02T14:33:38.912Z,94676.44
2019-01-02T14:36:08.271Z,94674.78
2019-01-02T14:38:37.674Z,94669.62
2019-01-02T14:41:07.351Z,94680.63
2019-01-02T14:43:36.707Z,94697.91
2019-01-02T14:46:06.034Z,94681.25
2019-01-02T14:48:35.403Z,94693.77
2019-01-02T14:51:04.804Z,94694.15
2019-01-02T14:53:34.488Z,94694.34
2019-01-02T14:56:03.863Z,94698.61
2019-01-02T14:58:33.154Z,94696.33
2019-01-02T15:01:02.586Z,94694.25
2019-01-02T15:03:31.995Z,94706.70
2019-01-02T15:06:01.555Z,94701.06
2019-01-02T15:08:30.903Z,94699.29
2019-01-02T15:11:00.180Z,94700.28
2019-01-02T15:13:29.597Z,94698.80
2019-01-02T15:15:58.882Z,94720.77
2019-01-02T15:18:28.616Z,94715.98
2019-01-02T15:20:58.377Z,94714.58
2019-01-02T15:23:27.871Z,94707.45
2019-01-02T15:25:57.271Z,94714.57
2019-01-02T15:28:26.743Z,94717.91
2019-01-02T15:30:56.168Z,94716.98
2019-01-02T15:33:25.743Z,94715.42
2019-01-02T15:35:55.252Z,94718.86
2019-01-02T15:38:24.619Z,94725.77
2019-01-02T15:40:54.024Z,94727.42
2019-01-02T15:43:23.719Z,94724.16
2019-01-02T15:45:53.276Z,94736.02
2019-01-02T15:48:22.584Z,94740.75
2019-01-02T15:50:52.110Z,94743.99
2019-01-02T15:53:21.388Z,94738.92
2019-01-02T15:55:50.728Z,94735.55
2019-01-02T15:58:20.276Z,94743.26
2019-01-02T16:00:49.588Z,94732.75
2019-01-02T16:03:18.943Z,94741.00
2019-01-02T16:05:48.411Z,94740.69
2019-01-02T16:08:17.825Z,94750.69
2019-01-02T16:10:47.413Z,94745.49
2019-01-02T16:13:18.389Z,94753.41
2019-01-02T16:15:47.850Z,94746.44
2019-01-02T16:18:17.224Z,94747.37
2019-01-02T16:20:47.160Z,94753.66
2019-01-02T16:23:16.758Z,94748.58
2019-01-02T16:25:46.135Z,94749.91
2019-01-02T16:28:15.569Z,94755.64
2019-01-02T16:30:45.071Z,94758.09
2019-01-02T16:33:14.617Z,94762.73
2019-01-02T16:35:44.216Z,94764.89
2019-01-02T16:38:13.616Z,94767.55
2019-01-02T16:40:43.037Z,94757.19
2019-01-02T16:43:12.500Z,94765.73
2019-01-02T16:45:41.771Z,94763.75
2019-01-02T16:48:11.160Z,94763.55
2019-01-02T16:50:40.974Z,94760.73
2019-01-02T16:53:10.261Z,94753.80
2019-01-02T16:55:39.606Z,94767.36
2019-01-02T16:58:09.260Z,94747.30
2019-01-02T17:00:38.544Z,94764.31
2019-01-02T17:03:07.917Z,94771.23
2019-01-02T17:05:37.482Z,94769.13
2019-01-02T17:08:06.885Z,94761.34
2019-01-02T17:10:36.252Z,94765.33
2019-01-02T17:13:05.807Z,94756.20
2019-01-02T17:15:35.111Z,94758.16
2019-01-02T17:18:04.486Z,94754.63
2019-01-02T17:20:34.174Z,94761.05
2019-01-02T17:23:03.475Z,94749.08
2019-01-02T17:25:32.787Z,94756.41
2019-01-02T17:28:02.427Z,94762.29
2019-01-02T17:30:31.766Z,94766.09
2019-01-02T17:33:01.142Z,94772.17
2019-01-02T17:35:31.613Z,94770.59
2019-01-02T17:38:01.035Z,94764.20
2019-01-02T17:40:30.608Z,94770.73
2019-01-02T17:43:00.725Z,94729.23
2019-01-02T17:45:29.618Z,94762.20
2019-01-02T17:47:58.989Z,94768.02
2019-01-02T17:50:28.606Z,94764.36
2019-01-02T17:52:57.998Z,94764.72
2019-01-02T17:55:27.441Z,94775.42
2019-01-02T17:57:57.755Z,94767.15
2019-01-02T18:00:27.235Z,94768.23
2019-01-02T18:02:56.633Z,94764.31
2019-01-02T18:05:26.498Z,94767.30
2019-01-02T18:07:55.778Z,94763.86
2019-01-02T18:10:25.172Z,94764.11
2019-01-02T18:12:54.509Z,94762.58
2019-01-02T18:15:23.789Z,94755.37
2019-01-02T18:17:53.144Z,94762.09
2019-01-02T18:20:22.840Z,94764.37
2019-01-02T18:22:52.223Z,94768.38
2019-01-02T18:25:21.645Z,94779.42
2019-01-02T18:27:51.440Z,94780.03
2019-01-02T18:30:20.857Z,94773.99
2019-01-02T18:32:50.318Z,94779.30
2019-01-02T18:35:19.969Z,94777.00
2019-01-02T18:37:49.749Z,94775.64
2019-01-02T18:40:19.196Z,94776.64
2019-01-02T18:42:48.891Z,94767.31
2019-01-02T18:45:18.313Z,94772.13
2019-01-02T18:47:48.721Z,94769.06
2019-01-02T18:50:24.788Z,94782.83
2019-01-02T18:52:59.676Z,94778.61
2019-01-02T18:55:29.316Z,94791.28
2019-01-02T18:57:58.277Z,94789.97
2019-01-02T19:00:27.252Z,94790.33
2019-01-02T19:02:57.211Z,94791.08
2019-01-02T19:05:27.421Z,94783.77
2019-01-02T19:07:57.096Z,94783.16
2019-01-02T19:10:27.051Z,94788.05
2019-01-02T19:12:56.660Z,94783.36
2019-01-02T19:15:26.338Z,94792.08
2019-01-02T19:17:56.295Z,94789.11
2019-01-02T19:20:26.734Z,94782.68
2019-01-02T19:22:56.823Z,94787.42
2019-01-02T19:25:26.381Z,94786.86
2019-01-02T19:27:58.257Z,94786.86
2019-01-02T19:30:26.883Z,94791.28
2019-01-02T19:32:56.517Z,94783.36
2019-01-02T19:35:26.217Z,94784.28
2019-01-02T19:37:56.567Z,94788.05
2019-01-02T19:40:25.959Z,94788.15
2019-01-02T19:42:55.552Z,94789.33
2019-01-02T19:45:26.245Z,94791.69
2019-01-02T19:47:55.683Z,94792.52
2019-01-02T19:50:25.120Z,94787.15
2019-01-02T19:52:54.967Z,94789.98
2019-01-02T19:55:24.631Z,94780.30
2019-01-02T19:57:54.133Z,94787.77
2019-01-02T20:00:23.715Z,94792.03
2019-01-02T20:02:53.372Z,94781.39
2019-01-02T20:05:22.936Z,94789.05
2019-01-02T20:07:52.710Z,94787.34
2019-01-02T20:10:22.971Z,94783.82
2019-01-02T20:12:52.388Z,94783.00
2019-01-02T20:15:22.359Z,94772.51
2019-01-02T20:17:52.073Z,94776.03
2019-01-02T20:20:21.574Z,94774.84
2019-01-02T20:22:51.323Z,94781.78
2019-01-02T20:25:21.072Z,94778.14
2019-01-02T20:27:50.489Z,94780.46
2019-01-02T20:30:20.049Z,94775.78
2019-01-02T20:32:49.474Z,94780.72
2019-01-02T20:35:18.827Z,94776.46
2019-01-02T20:37:48.543Z,94777.66
2019-01-02T20:40:17.920Z,94777.12
2019-01-02T20:42:47.397Z,94771.70
2019-01-02T20:45:17.442Z,94774.53
2019-01-02T20:47:48.081Z,94769.52
2019-01-02T20:50:16.722Z,94770.35
2019-01-02T20:52:46.294Z,94764.81
2019-01-02T20:55:15.880Z,94761.05
2019-01-02T20:57:45.555Z,94757.20
2019-01-02T21:00:15.199Z,94751.80
2019-01-02T21:02:44.887Z,94751.92
2019-01-02T21:05:14.657Z,94753.28
2019-01-02T21:07:44.672Z,94754.28
2019-01-02T21:10:14.280Z,94758.82
2019-01-02T21:12:43.810Z,94752.37
2019-01-02T21:15:13.614Z,94752.37
2019-01-02T21:17:42.962Z,94754.94
2019-01-02T21:20:12.385Z,94761.20
2019-01-02T21:22:41.829Z,94751.52
2019-01-02T21:25:11.549Z,94754.91
2019-01-02T21:27:41.258Z,94752.80
2019-01-02T21:30:11.171Z,94752.73
2019-01-02T21:32:40.787Z,94748.48
2019-01-02T21:35:10.208Z,94758.09
2019-01-02T21:37:39.995Z,94757.09
2019-01-02T21:40:09.795Z,94757.02
2019-01-02T21:42:39.228Z,94762.07
2019-01-02T21:45:08.911Z,94761.95
2019-01-02T21:47:38.549Z,94763.48
2019-01-02T21:50:08.629Z,94759.63
2019-01-02T21:52:38.473Z,94757.41
2019-01-02T21:55:07.890Z,94757.34
2019-01-02T21:57:37.253Z,94752.67
2019-01-02T22:00:09.375Z,94759.89
2019-01-02T22:02:40.354Z,94756.78
2019-01-02T22:05:08.500Z,94758.21
2019-01-02T22:07:37.895Z,94755.66
2019-01-02T22:10:07.591Z,94760.33
2019-01-02T22:12:36.971Z,94764.26
2019-01-02T22:15:07.563Z,94762.80
2019-01-02T22:17:36.988Z,94758.95
2019-01-02T22:20:06.794Z,94760.86
2019-01-02T22:22:36.702Z,94753.80
2019-01-02T22:25:06.959Z,94763.58
2019-01-02T22:27:36.287Z,94773.77
2019-01-02T22:30:07.046Z,94768.50
2019-01-02T22:32:37.285Z,94760.09
2019-01-02T22:35:06.864Z,94754.69
2019-01-02T22:37:36.453Z,94760.83
2019-01-02T22:40:06.564Z,94764.63
2019-01-02T22:42:35.969Z,94771.92
2019-01-02T22:45:05.754Z,94772.56
2019-01-02T22:47:35.051Z,94769.16
2019-01-02T22:50:05.584Z,94772.89
2019-01-02T22:52:35.023Z,94773.72
2019-01-02T22:55:04.310Z,94776.61
2019-01-02T22:57:33.848Z,94775.35
2019-01-02T23:00:03.512Z,94776.78
2019-01-02T23:02:39.012Z,94779.28
2019-01-02T23:07:17.872Z,94775.81
2019-01-02T23:09:55.185Z,94783.62
2019-01-02T23:14:30.896Z,94772.37
2019-01-02T23:17:06.171Z,94776.50
2019-01-02T23:19:44.651Z,94772.85
2019-01-02T23:22:19.182Z,94771.85
2019-01-02T23:26:55.728Z,94766.48
2019-01-02T23:31:31.514Z,94764.16
2019-01-02T23:34:08.084Z,94764.91
2019-01-02T23:38:44.623Z,94760.54
2019-01-02T23:41:21.279Z,94754.16
2019-01-02T23:44:01.722Z,94755.80
2019-01-02T23:46:36.453Z,94760.95
2019-01-02T23:51:14.127Z,94762.54
2019-01-02T23:53:48.861Z,94764.31
2019-01-02T23:56:23.432Z,94767.56
